Pelican — WDC4616 — position and weather

sailwx.info

Track history (hours):
 
Tides and Currents Weather Stations Pressure Air Temp Water Temp Dewpoint Dewpoint Depression Visibility Wind Speed Wind Dir Waves Ship Positions

Pelican

Owner: Scherba Jr., Stephen, Seattle, WA. More information available from US FCC via Universal Licensing System and Coast Guard Vessel Documentation Center.

Last reported at 2017-Sep-11 17:10 UTC. Time now 2017-Dec-12 15:59 UTC.
Position N 47°38' W 122°20'.
Warning: this ship's position is months out of date.

Length 16 m; draft 1.8 m.

Type: Pleasure craft. MMSI: 367027560.

Date/timePositionNaut miles runAvg speedWind from/ knotsBaromVisibWave heightAir tempDewpointWater temp
2017-Sep-11 17:10N 47°38' W 122°20'0 0.0
2017-Sep-11 16:55N 47°38' W 122°20'1 2.4
2017-Sep-11 16:30N 47°39' W 122°21'0 0.0
2017-Sep-11 15:23N 47°39' W 122°21'2 4.8
2017-Sep-11 15:00N 47°40' W 122°23'1 2.0
2017-Sep-11 14:30N 47°40' W 122°24'1 1.4
2017-Sep-11 13:59N 47°41' W 122°24'0 0.0
2017-Sep-11 13:29N 47°41' W 122°24'0 0.0
2017-Sep-11 12:59N 47°41' W 122°24'0 0.0
2017-Sep-11 12:29N 47°41' W 122°24'0 0.0
2017-Sep-11 11:59N 47°41' W 122°24'0 0.0
2017-Sep-11 11:29N 47°41' W 122°24'0 0.0
2017-Sep-11 10:59N 47°41' W 122°24'0 0.0
2017-Sep-11 10:29N 47°41' W 122°24'0 0.0
2017-Sep-11 09:59N 47°41' W 122°24'0 0.0
2017-Sep-11 09:29N 47°41' W 122°24'0 0.0
2017-Sep-11 08:59N 47°41' W 122°24'0 0.0
2017-Sep-11 08:29N 47°41' W 122°24'0 0.0
2017-Sep-11 07:56N 47°41' W 122°24'0 0.0
2017-Sep-11 07:29N 47°41' W 122°24'0 0.0
2017-Sep-11 06:59N 47°41' W 122°24'0 0.0
2017-Sep-11 06:29N 47°41' W 122°24'0 0.0
2017-Sep-11 05:59N 47°41' W 122°24'0 0.0
2017-Sep-11 05:29N 47°41' W 122°24'0 0.0
2017-Sep-11 04:59N 47°41' W 122°24'0 0.0
2017-Sep-11 04:29N 47°41' W 122°24'0 0.1
2017-Sep-11 03:59N 47°41' W 122°24'0 0.1
2017-Sep-11 03:29N 47°41' W 122°24'0 0.0
2017-Sep-11 02:59N 47°41' W 122°24'0 0.0
2017-Sep-11 02:29N 47°41' W 122°24'0 0.0
2017-Sep-11 02:00N 47°41' W 122°24'1 1.2
2017-Sep-11 01:30N 47°41' W 122°25'4 8.8
2017-Sep-11 01:01N 47°46' W 122°25'4 7.2
2017-Sep-11 00:30N 47°49' W 122°28'4 8.5
2017-Sep-11 00:00N 47°53' W 122°29'4 8.5
2017-Sep-10 23:30N 47°56' W 122°33'35 8.0
2017-Sep-10 19:05N 48°25' W 123°03'1 9.2
2017-Sep-10 19:00N 48°26' W 123°03'4 8.7
2017-Sep-10 18:30N 48°29' W 123°08'5 9.5
2017-Sep-10 18:01N 48°34' W 123°11'3 6.2
2017-Sep-10 17:30N 48°37' W 123°09'  
2017-Sep-07 19:12N 48°37' W 123°09'1 3.0
2017-Sep-07 18:56N 48°37' W 123°10'4 6.5
2017-Sep-07 18:22N 48°38' W 123°15'3 9.4
2017-Sep-07 18:00N 48°39' W 123°20'  
Track history (hours):
 
Tides and Currents Weather Stations Pressure Air Temp Water Temp Dewpoint Dewpoint Depression Visibility Wind Speed Wind Dir Waves Ship Positions

Pelican

Owner: Scherba Jr., Stephen, Seattle, WA. More information available from US FCC via Universal Licensing System and Coast Guard Vessel Documentation Center.

Last reported at 2017-Sep-11 17:10 UTC. Time now 2017-Dec-12 15:59 UTC.
Position N 47°38' W 122°20'.
Warning: this ship's position is months out of date.

Length 16 m; draft 1.8 m.

Type: Pleasure craft. MMSI: 367027560.

Date/timePositionNaut miles runAvg speedWind from/ knotsBaromVisibWave heightAir tempDewpointWater temp
2017-Sep-11 17:10N 47°38' W 122°20'0 0.0
2017-Sep-11 16:55N 47°38' W 122°20'1 2.4
2017-Sep-11 16:30N 47°39' W 122°21'0 0.0
2017-Sep-11 15:23N 47°39' W 122°21'2 4.8
2017-Sep-11 15:00N 47°40' W 122°23'1 2.0
2017-Sep-11 14:30N 47°40' W 122°24'1 1.4
2017-Sep-11 13:59N 47°41' W 122°24'0 0.0
2017-Sep-11 13:29N 47°41' W 122°24'0 0.0
2017-Sep-11 12:59N 47°41' W 122°24'0 0.0
2017-Sep-11 12:29N 47°41' W 122°24'0 0.0
2017-Sep-11 11:59N 47°41' W 122°24'0 0.0
2017-Sep-11 11:29N 47°41' W 122°24'0 0.0
2017-Sep-11 10:59N 47°41' W 122°24'0 0.0
2017-Sep-11 10:29N 47°41' W 122°24'0 0.0
2017-Sep-11 09:59N 47°41' W 122°24'0 0.0
2017-Sep-11 09:29N 47°41' W 122°24'0 0.0
2017-Sep-11 08:59N 47°41' W 122°24'0 0.0
2017-Sep-11 08:29N 47°41' W 122°24'0 0.0
2017-Sep-11 07:56N 47°41' W 122°24'0 0.0
2017-Sep-11 07:29N 47°41' W 122°24'0 0.0
2017-Sep-11 06:59N 47°41' W 122°24'0 0.0
2017-Sep-11 06:29N 47°41' W 122°24'0 0.0
2017-Sep-11 05:59N 47°41' W 122°24'0 0.0
2017-Sep-11 05:29N 47°41' W 122°24'0 0.0
2017-Sep-11 04:59N 47°41' W 122°24'0 0.0
2017-Sep-11 04:29N 47°41' W 122°24'0 0.1
2017-Sep-11 03:59N 47°41' W 122°24'0 0.1
2017-Sep-11 03:29N 47°41' W 122°24'0 0.0
2017-Sep-11 02:59N 47°41' W 122°24'0 0.0
2017-Sep-11 02:29N 47°41' W 122°24'0 0.0
2017-Sep-11 02:00N 47°41' W 122°24'1 1.2
2017-Sep-11 01:30N 47°41' W 122°25'4 8.8
2017-Sep-11 01:01N 47°46' W 122°25'4 7.2
2017-Sep-11 00:30N 47°49' W 122°28'4 8.5
2017-Sep-11 00:00N 47°53' W 122°29'4 8.5
2017-Sep-10 23:30N 47°56' W 122°33'35 8.0
2017-Sep-10 19:05N 48°25' W 123°03'1 9.2
2017-Sep-10 19:00N 48°26' W 123°03'4 8.7
2017-Sep-10 18:30N 48°29' W 123°08'5 9.5
2017-Sep-10 18:01N 48°34' W 123°11'3 6.2
2017-Sep-10 17:30N 48°37' W 123°09'  
2017-Sep-07 19:12N 48°37' W 123°09'1 3.0
2017-Sep-07 18:56N 48°37' W 123°10'4 6.5
2017-Sep-07 18:22N 48°38' W 123°15'3 9.4
2017-Sep-07 18:00N 48°39' W 123°20'  

Dump ship's entire track history